createdAt,value
2023-05-22T00:31:58.983Z,10.70
2023-05-22T00:34:26.685Z,10.60
2023-05-22T00:40:12.809Z,10.60
2023-05-22T00:42:40.876Z,10.60
2023-05-22T00:45:34.746Z,10.50
2023-05-22T00:48:02.024Z,10.50
2023-05-22T00:50:31.427Z,10.60
2023-05-22T00:53:23.950Z,10.50
2023-05-22T00:55:58.689Z,10.60
2023-05-22T00:58:29.752Z,10.40
2023-05-22T01:01:11.874Z,10.40
2023-05-22T01:03:50.913Z,10.50
2023-05-22T01:06:30.654Z,10.50
2023-05-22T01:18:57.868Z,10.40
2023-05-22T01:22:27.799Z,10.30
2023-05-22T01:26:17.681Z,10.30
2023-05-22T01:29:12.212Z,10.20
2023-05-22T01:31:54.880Z,10.20
2023-05-22T01:34:25.461Z,10.10
2023-05-22T01:36:55.287Z,10.20
2023-05-22T01:39:36.970Z,10.20
2023-05-22T01:46:11.760Z,10.10
2023-05-22T01:48:50.714Z,9.90
2023-05-22T01:51:40.180Z,10.00
2023-05-22T01:54:28.823Z,10.00
2023-05-22T01:57:05.977Z,10.00
2023-05-22T01:59:52.828Z,10.10
2023-05-22T02:02:23.925Z,10.10
2023-05-22T02:05:03.777Z,10.20
2023-05-22T02:07:34.152Z,10.20
2023-05-22T02:10:03.885Z,10.20
2023-05-22T02:12:43.397Z,10.10
2023-05-22T02:21:35.001Z,10.20
2023-05-22T02:24:04.151Z,10.20
2023-05-22T02:26:31.582Z,10.20
2023-05-22T02:32:16.864Z,10.00
2023-05-22T02:34:45.993Z,10.10
2023-05-22T02:37:17.450Z,10.10
2023-05-22T02:39:58.148Z,10.00
2023-05-22T02:42:28.537Z,10.00
2023-05-22T02:45:01.576Z,10.00
2023-05-22T02:47:29.148Z,10.00
2023-05-22T02:49:58.068Z,9.90
2023-05-22T02:52:28.633Z,10.00
2023-05-22T02:54:59.524Z,9.90
2023-05-22T02:57:27.259Z,9.90
2023-05-22T02:59:54.920Z,9.90
2023-05-22T03:02:21.979Z,9.90
2023-05-22T03:05:04.708Z,10.00
2023-05-22T03:11:26.696Z,9.90
2023-05-22T03:13:57.000Z,10.00
2023-05-22T03:29:13.225Z,10.20
2023-05-22T03:31:43.982Z,10.20
2023-05-22T03:43:25.721Z,10.20
2023-05-22T03:50:11.561Z,10.30
2023-05-22T03:52:39.060Z,10.40
2023-05-22T03:55:34.168Z,10.30
2023-05-22T03:58:03.635Z,10.30
2023-05-22T04:00:35.648Z,10.30
2023-05-22T04:03:17.616Z,10.30
2023-05-22T04:05:53.389Z,10.30
2023-05-22T04:08:22.812Z,10.30
2023-05-22T04:10:55.756Z,10.40
2023-05-22T04:13:27.003Z,10.20
2023-05-22T04:16:01.338Z,10.20
2023-05-22T04:18:28.825Z,10.10
2023-05-22T04:20:55.980Z,10.10
2023-05-22T04:23:45.157Z,10.20
2023-05-22T04:26:14.399Z,10.30
2023-05-22T04:29:02.511Z,10.20
2023-05-22T04:31:43.008Z,10.20
2023-05-22T04:34:23.051Z,10.30
2023-05-22T04:37:20.592Z,10.50
2023-05-22T04:39:50.554Z,10.50
2023-05-22T04:46:21.036Z,10.70
2023-05-22T04:49:55.974Z,10.70
2023-05-22T04:52:34.865Z,10.80
2023-05-22T04:55:04.537Z,10.80
2023-05-22T04:57:33.037Z,11.00
2023-05-22T05:00:32.196Z,11.20
2023-05-22T05:03:06.138Z,11.20
2023-05-22T05:05:57.229Z,11.30
2023-05-22T05:08:42.291Z,11.40
2023-05-22T05:11:18.375Z,11.40
2023-05-22T05:13:51.539Z,11.60
2023-05-22T05:16:30.958Z,11.70
2023-05-22T05:37:46.467Z,12.40
2023-05-22T05:40:23.048Z,12.40
2023-05-22T05:42:50.684Z,12.40
2023-05-22T05:45:26.270Z,12.50
2023-05-22T05:47:58.915Z,12.50
2023-05-22T05:50:27.185Z,12.70
2023-05-22T05:59:19.880Z,12.70
2023-05-22T06:01:54.924Z,12.70
2023-05-22T06:04:41.215Z,12.70
2023-05-22T06:07:15.267Z,12.70
2023-05-22T06:09:46.901Z,12.60
2023-05-22T06:12:14.289Z,12.60
2023-05-22T06:14:41.400Z,12.60
2023-05-22T06:17:11.356Z,12.70
2023-05-22T06:19:38.429Z,12.80
2023-05-22T06:22:05.709Z,12.90
2023-05-22T06:24:40.244Z,12.80
2023-05-22T06:27:09.893Z,12.90
2023-05-22T06:29:39.200Z,12.90
2023-05-22T06:35:05.529Z,12.90
2023-05-22T06:37:35.628Z,13.00
2023-05-22T06:40:03.141Z,13.10
2023-05-22T06:42:30.615Z,13.20
2023-05-22T06:44:59.571Z,13.20
2023-05-22T06:47:26.516Z,13.20
2023-05-22T06:49:53.352Z,13.20
2023-05-22T06:52:20.219Z,13.10
2023-05-22T06:54:47.239Z,13.20
2023-05-22T06:57:16.657Z,13.20
2023-05-22T06:59:43.502Z,13.20
2023-05-22T07:02:10.426Z,13.10
2023-05-22T07:04:37.268Z,13.20
2023-05-22T07:07:04.618Z,13.20
2023-05-22T07:09:31.776Z,13.30
2023-05-22T07:11:58.743Z,13.30
2023-05-22T07:14:25.981Z,13.40
2023-05-22T07:16:53.312Z,13.40
2023-05-22T07:19:20.198Z,13.50
2023-05-22T07:21:47.073Z,13.60
2023-05-22T07:24:13.909Z,13.60
2023-05-22T07:26:46.303Z,13.60
2023-05-22T07:29:16.704Z,13.60
2023-05-22T07:31:43.998Z,13.60
2023-05-22T07:34:11.217Z,13.70
2023-05-22T07:36:38.724Z,13.70
2023-05-22T07:39:05.894Z,13.60
2023-05-22T07:41:33.431Z,13.50
2023-05-22T07:44:00.768Z,13.50
2023-05-22T07:46:30.768Z,13.50
2023-05-22T07:49:00.024Z,13.50
2023-05-22T07:51:27.069Z,13.50
2023-05-22T07:53:54.077Z,13.50
2023-05-22T07:56:22.010Z,13.50
2023-05-22T07:58:49.221Z,13.50
2023-05-22T08:01:16.133Z,13.70
2023-05-22T08:03:44.219Z,14.00
2023-05-22T08:06:19.035Z,14.20
2023-05-22T08:08:47.635Z,14.40
2023-05-22T08:11:17.199Z,14.50
2023-05-22T08:13:50.265Z,14.90
2023-05-22T08:16:19.379Z,14.90
2023-05-22T08:18:48.519Z,15.10
2023-05-22T08:21:15.567Z,15.10
2023-05-22T08:23:42.483Z,15.20
2023-05-22T08:26:21.473Z,15.30
2023-05-22T08:29:02.942Z,15.50
2023-05-22T08:31:30.358Z,15.40
2023-05-22T08:34:02.868Z,15.50
2023-05-22T08:36:34.304Z,15.70
2023-05-22T08:39:02.108Z,16.00
2023-05-22T08:41:29.953Z,16.50
2023-05-22T08:43:59.950Z,16.80
2023-05-22T08:50:31.629Z,17.10
2023-05-22T08:53:07.887Z,17.50
2023-05-22T08:55:35.496Z,17.70
2023-05-22T08:58:05.052Z,17.90
2023-05-22T09:00:38.265Z,17.80
2023-05-22T09:03:29.288Z,18.00
2023-05-22T09:05:56.728Z,17.60
2023-05-22T09:20:01.215Z,18.30
2023-05-22T09:22:38.954Z,18.40
2023-05-22T09:25:07.135Z,18.40
2023-05-22T09:27:34.392Z,18.50
2023-05-22T09:30:05.995Z,18.60
2023-05-22T09:32:33.062Z,19.00
2023-05-22T09:35:06.761Z,19.30
2023-05-22T09:37:38.390Z,19.20
2023-05-22T09:40:14.193Z,19.30
2023-05-22T09:42:47.078Z,19.70
2023-05-22T09:45:15.665Z,19.90
2023-05-22T09:47:43.193Z,20.40
2023-05-22T09:50:10.870Z,20.60
2023-05-22T09:52:38.813Z,21.00
2023-05-22T09:55:07.261Z,21.30
2023-05-22T09:57:44.358Z,21.30
2023-05-22T10:00:16.525Z,21.10
2023-05-22T10:02:47.089Z,21.20
2023-05-22T10:05:22.313Z,20.80
2023-05-22T10:07:58.500Z,20.90
2023-05-22T10:10:26.494Z,21.00
2023-05-22T10:13:00.855Z,21.60
2023-05-22T10:15:29.423Z,21.50
2023-05-22T10:17:58.628Z,21.80
2023-05-22T10:20:29.240Z,21.60
2023-05-22T10:22:57.075Z,21.70
2023-05-22T10:25:24.245Z,22.00
2023-05-22T10:27:56.456Z,22.40
2023-05-22T10:30:50.343Z,23.30
2023-05-22T10:33:25.038Z,23.80
2023-05-22T10:35:55.502Z,24.60
2023-05-22T10:38:31.546Z,25.00
2023-05-22T10:41:03.457Z,26.00
2023-05-22T10:43:33.651Z,27.40
2023-05-22T10:46:05.065Z,28.00
2023-05-22T10:48:46.417Z,28.10
2023-05-22T10:51:21.165Z,28.10
2023-05-22T10:53:53.794Z,26.80
2023-05-22T10:56:30.258Z,25.70
2023-05-22T10:59:15.993Z,24.50
2023-05-22T11:01:46.902Z,24.20
2023-05-22T11:07:13.835Z,24.10
2023-05-22T11:09:56.708Z,23.50
2023-05-22T11:12:28.977Z,23.40
2023-05-22T11:15:02.555Z,23.00
2023-05-22T11:17:37.424Z,22.80
2023-05-22T11:20:07.220Z,23.10
2023-05-22T11:22:43.365Z,23.20
2023-05-22T11:25:19.531Z,23.00
2023-05-22T11:27:49.497Z,23.10
2023-05-22T11:30:19.841Z,23.10
2023-05-22T11:32:48.245Z,22.70
2023-05-22T11:35:17.427Z,22.50
2023-05-22T11:37:45.443Z,22.10
2023-05-22T11:40:18.664Z,22.00
2023-05-22T11:42:45.779Z,21.50
2023-05-22T11:45:13.436Z,21.50
2023-05-22T11:47:43.990Z,21.40
2023-05-22T11:50:22.452Z,21.40
2023-05-22T11:52:54.134Z,21.60
2023-05-22T11:55:22.234Z,21.80
2023-05-22T11:57:49.396Z,22.20
2023-05-22T12:00:17.340Z,22.40
2023-05-22T12:02:53.357Z,22.60
2023-05-22T12:05:24.365Z,22.50
2023-05-22T12:07:51.495Z,22.30
2023-05-22T12:10:20.408Z,22.20
2023-05-22T12:12:48.246Z,22.10
2023-05-22T12:15:20.407Z,21.90
2023-05-22T12:17:47.470Z,22.00
2023-05-22T12:20:14.717Z,22.60
2023-05-22T12:22:43.649Z,23.20
2023-05-22T12:25:20.306Z,23.10
2023-05-22T12:27:47.943Z,23.40
2023-05-22T12:30:16.725Z,23.80
2023-05-22T12:32:51.846Z,24.00
2023-05-22T12:35:19.506Z,23.30
2023-05-22T12:37:51.931Z,23.10
2023-05-22T12:40:21.153Z,23.00
2023-05-22T12:42:49.649Z,22.80
2023-05-22T12:45:18.000Z,22.60
2023-05-22T12:47:52.813Z,22.40
2023-05-22T12:50:19.880Z,22.40
2023-05-22T12:52:46.793Z,22.10
2023-05-22T12:55:17.758Z,22.20
2023-05-22T12:57:47.288Z,22.40
2023-05-22T13:00:24.063Z,23.40
2023-05-22T13:02:55.075Z,23.70
2023-05-22T13:05:25.485Z,23.10
2023-05-22T13:07:53.083Z,22.70
2023-05-22T13:10:20.211Z,22.80
2023-05-22T13:12:48.552Z,22.90
2023-05-22T13:15:21.050Z,22.80
2023-05-22T13:17:48.023Z,22.30
2023-05-22T13:20:15.162Z,22.00
2023-05-22T13:22:42.324Z,21.90
2023-05-22T13:25:09.944Z,21.90
2023-05-22T13:27:42.457Z,21.80
2023-05-22T13:30:10.121Z,21.60
2023-05-22T13:32:40.400Z,21.50
2023-05-22T13:35:10.046Z,21.80
2023-05-22T13:37:39.536Z,21.80
2023-05-22T13:40:09.683Z,22.00
2023-05-22T13:42:39.682Z,21.70
2023-05-22T13:45:07.711Z,22.10
2023-05-22T13:47:37.661Z,22.30
2023-05-22T13:50:05.684Z,22.00
2023-05-22T13:52:32.555Z,21.90
2023-05-22T13:55:11.954Z,21.70
2023-05-22T13:57:59.987Z,21.70
2023-05-22T14:00:26.819Z,21.70
2023-05-22T14:02:57.806Z,21.40
2023-05-22T14:08:06.054Z,20.90
2023-05-22T14:10:36.146Z,20.70
2023-05-22T14:13:06.971Z,20.60
2023-05-22T14:15:34.295Z,20.80
2023-05-22T14:18:04.598Z,20.80
2023-05-22T14:20:38.855Z,20.80
2023-05-22T14:23:12.243Z,21.00
2023-05-22T14:25:43.273Z,21.20
2023-05-22T14:28:13.923Z,21.30
2023-05-22T14:30:40.989Z,21.30
2023-05-22T14:33:08.122Z,21.30
2023-05-22T14:35:35.055Z,20.90
2023-05-22T14:38:02.185Z,21.00
2023-05-22T14:40:29.143Z,20.90
2023-05-22T14:42:56.090Z,20.70
2023-05-22T14:45:23.155Z,20.90
2023-05-22T14:47:50.660Z,21.00
2023-05-22T14:50:20.422Z,21.00
2023-05-22T14:52:50.084Z,21.00
2023-05-22T14:55:17.508Z,20.80
2023-05-22T14:57:44.713Z,20.80
2023-05-22T15:00:12.749Z,20.60
2023-05-22T15:02:40.223Z,20.80
2023-05-22T15:05:08.141Z,20.90
2023-05-22T15:10:06.484Z,21.40
2023-05-22T15:12:33.445Z,21.40
2023-05-22T15:15:01.650Z,21.50
2023-05-22T15:17:39.433Z,21.40
2023-05-22T15:20:10.111Z,21.30
2023-05-22T15:22:37.079Z,21.10
2023-05-22T15:25:05.657Z,21.10
2023-05-22T15:27:34.647Z,20.90
2023-05-22T15:30:02.156Z,20.80
2023-05-22T15:32:30.857Z,21.00
2023-05-22T15:34:57.915Z,20.70
2023-05-22T15:37:25.117Z,21.20
2023-05-22T15:39:52.019Z,21.20
2023-05-22T15:42:20.871Z,21.00
2023-05-22T15:44:48.697Z,20.90
2023-05-22T15:47:16.671Z,20.50
2023-05-22T15:49:43.621Z,20.40
2023-05-22T15:52:10.606Z,20.50
2023-05-22T15:54:37.802Z,20.60
2023-05-22T15:57:05.151Z,20.70
2023-05-22T15:59:32.019Z,20.70
2023-05-22T16:01:58.860Z,20.70
2023-05-22T16:04:25.850Z,20.70
2023-05-22T16:06:52.805Z,20.80
2023-05-22T16:09:19.779Z,20.90
2023-05-22T16:11:47.038Z,21.10
2023-05-22T16:14:13.967Z,21.20
2023-05-22T16:16:41.064Z,21.20
2023-05-22T16:19:08.151Z,21.10
2023-05-22T16:21:35.108Z,21.20
2023-05-22T16:24:02.096Z,21.30
2023-05-22T16:26:28.918Z,21.20
2023-05-22T16:28:55.790Z,20.90
2023-05-22T16:31:22.721Z,20.70
2023-05-22T16:33:49.683Z,20.50
2023-05-22T16:36:17.996Z,20.40
2023-05-22T16:38:44.969Z,20.20
2023-05-22T16:41:13.096Z,20.10
2023-05-22T16:43:43.472Z,20.00
2023-05-22T16:46:13.002Z,20.10
2023-05-22T16:48:39.967Z,20.00
2023-05-22T16:51:08.743Z,19.90
2023-05-22T16:53:37.955Z,19.80
2023-05-22T16:56:06.234Z,19.70
2023-05-22T16:58:33.240Z,19.70
2023-05-22T17:03:49.186Z,19.70
2023-05-22T17:06:21.165Z,19.70
2023-05-22T17:11:41.645Z,19.80
2023-05-22T17:14:30.422Z,19.70
2023-05-22T17:16:57.264Z,19.80
2023-05-22T17:19:29.580Z,19.80
2023-05-22T17:22:07.146Z,19.90
2023-05-22T17:24:35.642Z,19.80
2023-05-22T17:27:05.503Z,19.90
2023-05-22T17:29:32.772Z,19.90
2023-05-22T17:32:10.737Z,20.00
2023-05-22T17:34:37.755Z,20.00
2023-05-22T17:37:06.932Z,20.30
2023-05-22T17:39:36.374Z,20.50
2023-05-22T17:42:06.332Z,20.60
2023-05-22T17:44:33.312Z,20.60
2023-05-22T17:47:13.665Z,20.40
2023-05-22T17:49:45.722Z,20.10
2023-05-22T17:52:15.774Z,19.80
2023-05-22T17:54:44.658Z,19.50
2023-05-22T17:57:17.132Z,19.40
2023-05-22T17:59:46.846Z,19.20
2023-05-22T18:02:21.469Z,19.00
2023-05-22T18:04:54.076Z,18.90
2023-05-22T18:07:29.919Z,18.80
2023-05-22T18:10:05.033Z,18.70
2023-05-22T18:12:32.394Z,18.60
2023-05-22T18:15:04.558Z,18.50
2023-05-22T18:17:35.981Z,18.50
2023-05-22T18:20:12.033Z,18.40
2023-05-22T18:22:39.899Z,18.30
2023-05-22T18:25:12.958Z,18.20
2023-05-22T18:27:41.911Z,18.20
2023-05-22T18:30:14.197Z,18.20
2023-05-22T18:32:44.465Z,18.20
2023-05-22T18:35:11.529Z,18.20
2023-05-22T18:37:38.517Z,18.20
2023-05-22T18:40:11.413Z,18.10
2023-05-22T18:42:46.909Z,18.00
2023-05-22T18:45:21.464Z,17.90
2023-05-22T18:48:51.313Z,17.90
2023-05-22T18:50:44.894Z,17.80
2023-05-22T18:53:25.834Z,17.70
2023-05-22T18:56:02.737Z,17.60
2023-05-22T18:58:30.240Z,17.60
2023-05-22T19:01:19.527Z,17.50
2023-05-22T19:03:54.692Z,17.50
2023-05-22T19:06:35.323Z,17.30
2023-05-22T19:09:23.802Z,17.20
2023-05-22T19:11:52.733Z,17.10
2023-05-22T19:14:34.572Z,17.00
2023-05-22T19:17:12.772Z,16.90
2023-05-22T19:19:46.810Z,16.80
2023-05-22T19:22:20.784Z,16.70
2023-05-22T19:24:51.565Z,16.70
2023-05-22T19:27:18.508Z,16.60
2023-05-22T19:29:48.511Z,16.50
2023-05-22T19:32:18.903Z,16.60
2023-05-22T19:34:46.592Z,16.50
2023-05-22T19:37:16.550Z,16.50
2023-05-22T19:39:45.727Z,16.40
2023-05-22T19:42:21.780Z,16.50
2023-05-22T19:45:14.785Z,16.60
2023-05-22T19:47:57.547Z,16.50
2023-05-22T19:50:24.946Z,16.50
2023-05-22T19:53:03.558Z,16.50
2023-05-22T19:55:30.738Z,16.40
2023-05-22T20:01:33.497Z,16.20
2023-05-22T20:04:06.129Z,16.00
2023-05-22T20:06:35.185Z,16.00
2023-05-22T20:09:17.301Z,16.10
2023-05-22T20:11:47.477Z,16.20
2023-05-22T20:14:18.137Z,16.20
2023-05-22T20:16:46.262Z,16.30
2023-05-22T20:19:18.641Z,16.30
2023-05-22T20:21:52.967Z,16.30
2023-05-22T20:24:25.437Z,16.30
2023-05-22T20:26:52.943Z,16.10
2023-05-22T20:30:19.509Z,16.00
2023-05-22T20:33:28.851Z,15.90
2023-05-22T20:38:54.753Z,15.80
2023-05-22T20:41:25.943Z,15.70
2023-05-22T20:44:25.039Z,15.60
2023-05-22T20:47:18.459Z,15.50
2023-05-22T20:49:48.389Z,15.40
2023-05-22T20:52:50.175Z,15.30
2023-05-22T20:55:40.627Z,15.20
2023-05-22T20:58:19.887Z,15.20
2023-05-22T21:00:59.177Z,15.00
2023-05-22T21:03:36.171Z,15.00
2023-05-22T21:06:03.658Z,15.00
2023-05-22T21:08:30.595Z,14.90
2023-05-22T21:11:00.639Z,14.90
2023-05-22T21:13:27.580Z,14.90
2023-05-22T21:15:54.453Z,15.00
2023-05-22T21:18:22.028Z,15.00
2023-05-22T21:20:55.227Z,15.00
2023-05-22T21:23:27.114Z,15.00
2023-05-22T21:25:54.393Z,15.00
2023-05-22T21:28:23.911Z,14.80
2023-05-22T21:30:53.923Z,14.70
2023-05-22T21:33:20.833Z,14.60
2023-05-22T21:35:50.100Z,14.60
2023-05-22T21:38:19.348Z,14.50
2023-05-22T21:40:46.217Z,14.40
2023-05-22T21:43:13.126Z,14.40
2023-05-22T21:45:42.499Z,14.30
2023-05-22T21:48:09.490Z,14.30
2023-05-22T21:50:36.412Z,14.30
2023-05-22T21:53:03.376Z,14.10
2023-05-22T21:55:38.829Z,14.10
2023-05-22T21:58:11.929Z,14.00
2023-05-22T22:00:41.396Z,13.90
2023-05-22T22:03:20.618Z,13.80
2023-05-22T22:05:53.573Z,13.60
2023-05-22T22:08:29.816Z,13.60
2023-05-22T22:13:50.585Z,13.50
2023-05-22T22:16:17.957Z,13.50
2023-05-22T22:18:49.141Z,13.50
2023-05-22T22:21:17.536Z,13.50
2023-05-22T22:23:51.095Z,13.50
2023-05-22T22:26:18.097Z,13.40
2023-05-22T22:28:48.106Z,13.40
2023-05-22T22:31:17.370Z,13.40
2023-05-22T22:33:56.338Z,13.40
2023-05-22T22:36:28.917Z,13.40
2023-05-22T22:39:05.595Z,13.30
2023-05-22T22:41:32.574Z,13.20
2023-05-22T22:44:06.087Z,13.10
2023-05-22T22:46:36.111Z,13.10
2023-05-22T22:49:12.240Z,13.00
2023-05-22T22:51:49.003Z,13.00
2023-05-22T22:54:53.439Z,13.10
2023-05-22T22:57:20.549Z,12.80
2023-05-22T22:59:58.113Z,12.80
2023-05-22T23:02:41.460Z,12.80
2023-05-22T23:05:24.316Z,12.70
2023-05-22T23:07:53.424Z,12.70
2023-05-22T23:10:27.310Z,12.60
2023-05-22T23:12:58.488Z,12.60
2023-05-22T23:15:32.324Z,12.50
2023-05-22T23:18:11.483Z,12.50
2023-05-22T23:20:48.757Z,12.30
2023-05-22T23:23:19.307Z,12.20
2023-05-22T23:25:46.379Z,12.30
2023-05-22T23:28:18.873Z,12.20
2023-05-22T23:30:48.271Z,12.30
2023-05-22T23:33:21.573Z,12.20
2023-05-22T23:35:57.681Z,12.10
2023-05-22T23:38:30.673Z,12.10
2023-05-22T23:40:59.108Z,12.10
2023-05-22T23:43:41.329Z,12.00
2023-05-22T23:46:25.471Z,11.90
2023-05-22T23:49:00.151Z,11.90
2023-05-22T23:51:30.227Z,11.90
2023-05-22T23:53:59.807Z,11.90
2023-05-22T23:56:29.579Z,11.80
2023-05-22T23:58:59.396Z,11.80
